Aérodrome :
LOGIN :

S'inscrire | Disclaimer

   EN    FR    IT 

 










Légende :    VFR   VFR Marginal   IFR   IFR Intensif   IFR Très Intensif
Visi : 
Plafond : 
>= 8 km
>= 3000ft
5 à 8 km
1000 à 3000 ft
1500m à 5 km
500 à 1000 ft
800 à 1500m
200 à 500 ft
< 800m
< 200 ft
Symboles :   Orages  Brouillard  Fortes neiges  Fortes précipitations  Vent > 20 kt
SIGMETs :   Divers  Orages  Givrage  Turbulence  Onde Orograph.  Cendres Volcan.






- Altitude de l'aérodrome : 20 ft
- Code IATA : DLM


LTBS - Dalaman

DERNIER METAR :
  • 090220Z 08005KT CAVOK 23/20 Q1002 NOSIG

METARs EXPIRÉS :
  • 090150Z 07002KT CAVOK 24/20 Q1002 NOSIG
  • 090120Z 00000KT CAVOK 24/20 Q1002 NOSIG RMK RWY19 00000KT SKC
  • 090050Z 11002KT CAVOK 23/20 Q1001 NOSIG RMK RWY19 00000KT SKC
  • 090020Z 11003KT CAVOK 24/20 Q1002 NOSIG RMK RWY19 00000KT SKC
  • 082350Z 11003KT CAVOK 24/20 Q1002 NOSIG RMK RWY19 12002KT SKC

TAF TAF LTBS
Valide du 09 à 00h jusqu'au 10 à 00h UTC


082240Z 0900/0924 VRB02KT CAVOK
BECMG 0906/0908 24015KT SCT030
PROB30
TEMPO 0914/0917 -TSRA FEW015CB BKN025
BECMG 0916/0918 VRB02KT



MET'MAP, la Météo Aéronautique d'un coup d'oeil ! - Copyright ORBIFLY Décembre 2007 - Disclaimer

ORBIFLY MET'MAP TEAM :

Programmation & Développement : Alexandra Zaïnal
Sur une idée originale de : Baudouin d'Aumeries
Assistance à la programmation : Marc-Olivier Méhu
Soutien technique & logistique : Manuel Goepfert

Contact : metmap@orbifly.com




SOURCES & CREDITS :

   NOAA